sensor_id;sensor_type;location;lat;lon;timestamp;P1;durP1;ratioP1;P2;durP2;ratioP2
54679;SDS011;40578;53.178;5.846;2022-07-24T00:00:26;6.57;;;4.90;;
54679;SDS011;40578;53.178;5.846;2022-07-24T00:02:52;10.23;;;5.00;;
54679;SDS011;40578;53.178;5.846;2022-07-24T00:05:17;8.53;;;4.80;;
54679;SDS011;40578;53.178;5.846;2022-07-24T00:07:43;6.73;;;5.37;;
54679;SDS011;40578;53.178;5.846;2022-07-24T00:10:09;9.30;;;5.37;;
54679;SDS011;40578;53.178;5.846;2022-07-24T00:12:35;7.82;;;4.82;;
54679;SDS011;40578;53.178;5.846;2022-07-24T00:15:01;9.18;;;5.05;;
54679;SDS011;40578;53.178;5.846;2022-07-24T00:17:27;7.15;;;5.10;;
54679;SDS011;40578;53.178;5.846;2022-07-24T00:19:53;7.75;;;4.88;;
54679;SDS011;40578;53.178;5.846;2022-07-24T00:22:19;9.73;;;5.50;;
54679;SDS011;40578;53.178;5.846;2022-07-24T00:24:44;7.63;;;5.50;;
54679;SDS011;40578;53.178;5.846;2022-07-24T00:27:10;6.70;;;4.73;;
54679;SDS011;40578;53.178;5.846;2022-07-24T00:29:35;8.83;;;5.23;;
54679;SDS011;40578;53.178;5.846;2022-07-24T00:32:01;9.50;;;5.40;;
54679;SDS011;40578;53.178;5.846;2022-07-24T00:34:27;6.77;;;4.80;;
54679;SDS011;40578;53.178;5.846;2022-07-24T00:36:52;7.07;;;5.80;;
54679;SDS011;40578;53.178;5.846;2022-07-24T00:39:18;8.37;;;5.33;;
54679;SDS011;40578;53.178;5.846;2022-07-24T00:41:44;7.93;;;5.90;;
54679;SDS011;40578;53.178;5.846;2022-07-24T00:44:10;10.87;;;6.23;;
54679;SDS011;40578;53.178;5.846;2022-07-24T00:46:39;12.23;;;6.28;;
54679;SDS011;40578;53.178;5.846;2022-07-24T00:49:07;7.82;;;6.15;;
54679;SDS011;40578;53.178;5.846;2022-07-24T00:51:35;9.70;;;6.50;;
54679;SDS011;40578;53.178;5.846;2022-07-24T00:54:04;8.90;;;6.13;;
54679;SDS011;40578;53.178;5.846;2022-07-24T00:56:31;9.40;;;6.57;;
54679;SDS011;40578;53.178;5.846;2022-07-24T00:58:57;7.83;;;6.17;;
54679;SDS011;40578;53.178;5.846;2022-07-24T01:01:24;8.48;;;6.78;;
54679;SDS011;40578;53.178;5.846;2022-07-24T01:03:49;7.90;;;7.03;;
54679;SDS011;40578;53.178;5.846;2022-07-24T01:06:15;8.83;;;6.90;;
54679;SDS011;40578;53.178;5.846;2022-07-24T01:08:41;9.67;;;7.13;;
54679;SDS011;40578;53.178;5.846;2022-07-24T01:11:10;10.25;;;8.18;;
54679;SDS011;40578;53.178;5.846;2022-07-24T01:13:36;10.93;;;8.07;;
54679;SDS011;40578;53.178;5.846;2022-07-24T01:16:02;8.60;;;7.70;;
54679;SDS011;40578;53.178;5.846;2022-07-24T01:18:28;10.03;;;7.33;;
54679;SDS011;40578;53.178;5.846;2022-07-24T01:20:53;10.03;;;7.83;;
54679;SDS011;40578;53.178;5.846;2022-07-24T01:25:46;9.85;;;7.60;;
54679;SDS011;40578;53.178;5.846;2022-07-24T01:28:12;8.93;;;7.47;;
54679;SDS011;40578;53.178;5.846;2022-07-24T01:30:38;10.30;;;7.40;;
54679;SDS011;40578;53.178;5.846;2022-07-24T01:33:03;9.53;;;7.17;;
54679;SDS011;40578;53.178;5.846;2022-07-24T01:35:29;9.43;;;7.70;;
54679;SDS011;40578;53.178;5.846;2022-07-24T01:37:55;11.20;;;7.67;;
54679;SDS011;40578;53.178;5.846;2022-07-24T01:40:20;10.17;;;7.90;;
54679;SDS011;40578;53.178;5.846;2022-07-24T01:42:47;10.13;;;8.52;;
54679;SDS011;40578;53.178;5.846;2022-07-24T01:45:13;10.15;;;8.13;;
54679;SDS011;40578;53.178;5.846;2022-07-24T01:47:39;10.13;;;8.32;;
54679;SDS011;40578;53.178;5.846;2022-07-24T01:52:31;9.50;;;8.45;;
54679;SDS011;40578;53.178;5.846;2022-07-24T01:54:57;11.07;;;8.93;;
54679;SDS011;40578;53.178;5.846;2022-07-24T01:57:22;16.37;;;8.90;;
54679;SDS011;40578;53.178;5.846;2022-07-24T01:59:48;10.43;;;8.43;;
54679;SDS011;40578;53.178;5.846;2022-07-24T02:02:14;10.77;;;9.20;;
54679;SDS011;40578;53.178;5.846;2022-07-24T02:04:39;9.77;;;8.40;;
54679;SDS011;40578;53.178;5.846;2022-07-24T02:07:05;11.00;;;9.50;;
54679;SDS011;40578;53.178;5.846;2022-07-24T02:09:31;11.07;;;9.00;;
54679;SDS011;40578;53.178;5.846;2022-07-24T02:11:56;10.47;;;8.87;;
54679;SDS011;40578;53.178;5.846;2022-07-24T02:14:22;10.40;;;9.30;;
54679;SDS011;40578;53.178;5.846;2022-07-24T02:16:47;12.40;;;9.67;;
54679;SDS011;40578;53.178;5.846;2022-07-24T02:19:13;13.60;;;9.83;;
54679;SDS011;40578;53.178;5.846;2022-07-24T02:21:39;9.73;;;8.73;;
54679;SDS011;40578;53.178;5.846;2022-07-24T02:24:05;13.17;;;10.53;;
54679;SDS011;40578;53.178;5.846;2022-07-24T02:26:31;10.45;;;9.35;;
54679;SDS011;40578;53.178;5.846;2022-07-24T02:28:58;14.18;;;9.98;;
54679;SDS011;40578;53.178;5.846;2022-07-24T02:31:23;12.00;;;10.43;;
54679;SDS011;40578;53.178;5.846;2022-07-24T02:33:49;11.93;;;10.17;;
54679;SDS011;40578;53.178;5.846;2022-07-24T02:36:15;11.87;;;10.47;;
54679;SDS011;40578;53.178;5.846;2022-07-24T02:38:41;13.17;;;10.77;;
54679;SDS011;40578;53.178;5.846;2022-07-24T02:41:07;12.32;;;10.68;;
54679;SDS011;40578;53.178;5.846;2022-07-24T02:43:32;11.90;;;10.67;;
54679;SDS011;40578;53.178;5.846;2022-07-24T02:45:58;11.80;;;10.47;;
54679;SDS011;40578;53.178;5.846;2022-07-24T02:48:24;13.47;;;10.97;;
54679;SDS011;40578;53.178;5.846;2022-07-24T02:50:49;13.17;;;10.47;;
54679;SDS011;40578;53.178;5.846;2022-07-24T02:53:15;14.20;;;10.90;;
54679;SDS011;40578;53.178;5.846;2022-07-24T02:55:41;11.63;;;10.47;;
54679;SDS011;40578;53.178;5.846;2022-07-24T02:58:06;13.03;;;11.30;;
54679;SDS011;40578;53.178;5.846;2022-07-24T03:00:32;13.40;;;11.33;;
54679;SDS011;40578;53.178;5.846;2022-07-24T03:02:58;13.60;;;10.80;;
54679;SDS011;40578;53.178;5.846;2022-07-24T03:05:24;12.90;;;11.60;;
54679;SDS011;40578;53.178;5.846;2022-07-24T03:07:49;13.67;;;11.43;;
54679;SDS011;40578;53.178;5.846;2022-07-24T03:10:15;14.30;;;11.27;;
54679;SDS011;40578;53.178;5.846;2022-07-24T03:12:41;14.70;;;11.53;;
54679;SDS011;40578;53.178;5.846;2022-07-24T03:15:08;15.05;;;11.57;;
54679;SDS011;40578;53.178;5.846;2022-07-24T03:17:34;15.10;;;11.35;;
54679;SDS011;40578;53.178;5.846;2022-07-24T03:19:59;14.00;;;11.33;;
54679;SDS011;40578;53.178;5.846;2022-07-24T03:22:25;14.27;;;12.02;;
54679;SDS011;40578;53.178;5.846;2022-07-24T03:24:51;14.50;;;11.87;;
54679;SDS011;40578;53.178;5.846;2022-07-24T03:27:17;13.07;;;11.67;;
54679;SDS011;40578;53.178;5.846;2022-07-24T03:29:42;14.83;;;12.07;;
54679;SDS011;40578;53.178;5.846;2022-07-24T03:32:08;17.53;;;12.27;;
54679;SDS011;40578;53.178;5.846;2022-07-24T03:34:34;15.53;;;11.93;;
54679;SDS011;40578;53.178;5.846;2022-07-24T03:36:59;14.23;;;12.23;;
54679;SDS011;40578;53.178;5.846;2022-07-24T03:39:25;14.67;;;11.90;;
54679;SDS011;40578;53.178;5.846;2022-07-24T03:41:50;17.17;;;12.77;;
54679;SDS011;40578;53.178;5.846;2022-07-24T03:44:16;16.87;;;12.57;;
54679;SDS011;40578;53.178;5.846;2022-07-24T03:46:42;14.03;;;11.77;;
54679;SDS011;40578;53.178;5.846;2022-07-24T03:49:07;12.90;;;11.50;;
54679;SDS011;40578;53.178;5.846;2022-07-24T03:51:33;14.47;;;11.93;;
54679;SDS011;40578;53.178;5.846;2022-07-24T03:54:00;14.77;;;12.15;;
54679;SDS011;40578;53.178;5.846;2022-07-24T03:56:27;16.23;;;11.75;;
54679;SDS011;40578;53.178;5.846;2022-07-24T03:58:53;16.30;;;12.57;;
54679;SDS011;40578;53.178;5.846;2022-07-24T04:01:19;15.13;;;12.87;;
54679;SDS011;40578;53.178;5.846;2022-07-24T04:03:45;17.80;;;13.18;;
54679;SDS011;40578;53.178;5.846;2022-07-24T04:06:11;19.23;;;13.13;;
54679;SDS011;40578;53.178;5.846;2022-07-24T04:08:36;14.77;;;13.17;;
54679;SDS011;40578;53.178;5.846;2022-07-24T04:11:02;17.27;;;13.20;;
54679;SDS011;40578;53.178;5.846;2022-07-24T04:13:30;15.93;;;13.33;;
54679;SDS011;40578;53.178;5.846;2022-07-24T04:15:57;16.15;;;12.95;;
54679;SDS011;40578;53.178;5.846;2022-07-24T04:18:22;16.67;;;13.38;;
54679;SDS011;40578;53.178;5.846;2022-07-24T04:20:48;19.27;;;13.07;;
54679;SDS011;40578;53.178;5.846;2022-07-24T04:23:14;17.77;;;13.40;;
54679;SDS011;40578;53.178;5.846;2022-07-24T04:25:40;14.52;;;12.93;;
54679;SDS011;40578;53.178;5.846;2022-07-24T04:28:06;17.20;;;13.30;;
54679;SDS011;40578;53.178;5.846;2022-07-24T04:30:31;14.67;;;12.80;;
54679;SDS011;40578;53.178;5.846;2022-07-24T04:32:57;16.20;;;13.70;;
54679;SDS011;40578;53.178;5.846;2022-07-24T04:35:23;16.63;;;13.37;;
54679;SDS011;40578;53.178;5.846;2022-07-24T04:37:49;17.55;;;14.27;;
54679;SDS011;40578;53.178;5.846;2022-07-24T04:40:15;16.70;;;13.97;;
54679;SDS011;40578;53.178;5.846;2022-07-24T04:42:40;17.73;;;14.50;;
54679;SDS011;40578;53.178;5.846;2022-07-24T04:45:06;18.37;;;14.63;;
54679;SDS011;40578;53.178;5.846;2022-07-24T04:47:34;17.27;;;14.20;;
54679;SDS011;40578;53.178;5.846;2022-07-24T04:50:00;17.45;;;14.18;;
54679;SDS011;40578;53.178;5.846;2022-07-24T04:52:26;19.23;;;14.23;;
54679;SDS011;40578;53.178;5.846;2022-07-24T04:54:51;18.93;;;14.03;;
54679;SDS011;40578;53.178;5.846;2022-07-24T04:57:17;19.47;;;14.50;;
54679;SDS011;40578;53.178;5.846;2022-07-24T04:59:43;16.23;;;13.47;;
54679;SDS011;40578;53.178;5.846;2022-07-24T05:02:09;18.40;;;14.03;;
54679;SDS011;40578;53.178;5.846;2022-07-24T05:04:34;19.80;;;14.50;;
54679;SDS011;40578;53.178;5.846;2022-07-24T05:07:00;21.27;;;14.47;;
54679;SDS011;40578;53.178;5.846;2022-07-24T05:09:27;18.45;;;13.77;;
54679;SDS011;40578;53.178;5.846;2022-07-24T05:11:52;15.57;;;13.15;;
54679;SDS011;40578;53.178;5.846;2022-07-24T05:14:18;17.73;;;13.27;;
54679;SDS011;40578;53.178;5.846;2022-07-24T05:16:44;14.80;;;13.03;;
54679;SDS011;40578;53.178;5.846;2022-07-24T05:19:10;17.03;;;14.03;;
54679;SDS011;40578;53.178;5.846;2022-07-24T05:21:35;14.27;;;12.67;;
54679;SDS011;40578;53.178;5.846;2022-07-24T05:24:01;15.70;;;13.47;;
54679;SDS011;40578;53.178;5.846;2022-07-24T05:26:27;16.23;;;12.90;;
54679;SDS011;40578;53.178;5.846;2022-07-24T05:28:56;16.35;;;12.55;;
54679;SDS011;40578;53.178;5.846;2022-07-24T05:31:26;13.68;;;12.15;;
54679;SDS011;40578;53.178;5.846;2022-07-24T05:33:52;15.07;;;13.13;;
54679;SDS011;40578;53.178;5.846;2022-07-24T05:36:18;14.38;;;12.65;;
54679;SDS011;40578;53.178;5.846;2022-07-24T05:38:44;14.80;;;13.23;;
54679;SDS011;40578;53.178;5.846;2022-07-24T05:41:13;16.40;;;13.63;;
54679;SDS011;40578;53.178;5.846;2022-07-24T05:43:39;15.35;;;13.50;;
54679;SDS011;40578;53.178;5.846;2022-07-24T05:46:04;16.83;;;12.93;;
54679;SDS011;40578;53.178;5.846;2022-07-24T05:48:30;14.60;;;13.05;;
54679;SDS011;40578;53.178;5.846;2022-07-24T05:50:57;17.98;;;13.48;;
54679;SDS011;40578;53.178;5.846;2022-07-24T05:53:22;15.33;;;13.03;;
54679;SDS011;40578;53.178;5.846;2022-07-24T05:55:48;18.23;;;13.43;;
54679;SDS011;40578;53.178;5.846;2022-07-24T05:58:14;17.92;;;13.70;;
54679;SDS011;40578;53.178;5.846;2022-07-24T06:00:40;17.47;;;13.90;;
54679;SDS011;40578;53.178;5.846;2022-07-24T06:03:06;18.07;;;14.10;;
54679;SDS011;40578;53.178;5.846;2022-07-24T06:05:31;17.03;;;15.07;;
54679;SDS011;40578;53.178;5.846;2022-07-24T06:07:57;18.50;;;16.05;;
54679;SDS011;40578;53.178;5.846;2022-07-24T06:10:23;18.20;;;15.60;;
54679;SDS011;40578;53.178;5.846;2022-07-24T06:12:49;16.80;;;14.13;;
54679;SDS011;40578;53.178;5.846;2022-07-24T06:15:14;18.77;;;15.63;;
54679;SDS011;40578;53.178;5.846;2022-07-24T06:17:40;18.70;;;16.70;;
54679;SDS011;40578;53.178;5.846;2022-07-24T06:20:06;20.73;;;17.83;;
54679;SDS011;40578;53.178;5.846;2022-07-24T06:22:33;21.13;;;16.95;;
54679;SDS011;40578;53.178;5.846;2022-07-24T06:24:59;18.70;;;16.40;;
54679;SDS011;40578;53.178;5.846;2022-07-24T06:27:25;21.63;;;16.50;;
54679;SDS011;40578;53.178;5.846;2022-07-24T06:29:51;19.17;;;15.97;;
54679;SDS011;40578;53.178;5.846;2022-07-24T06:32:16;21.97;;;17.33;;
54679;SDS011;40578;53.178;5.846;2022-07-24T06:34:44;20.60;;;17.33;;
54679;SDS011;40578;53.178;5.846;2022-07-24T06:37:10;22.67;;;17.65;;
54679;SDS011;40578;53.178;5.846;2022-07-24T06:39:35;17.27;;;15.33;;
54679;SDS011;40578;53.178;5.846;2022-07-24T06:42:01;18.40;;;15.97;;
54679;SDS011;40578;53.178;5.846;2022-07-24T06:44:27;20.37;;;16.53;;
54679;SDS011;40578;53.178;5.846;2022-07-24T06:46:52;20.77;;;17.03;;
54679;SDS011;40578;53.178;5.846;2022-07-24T06:49:18;19.50;;;17.40;;
54679;SDS011;40578;53.178;5.846;2022-07-24T06:51:44;22.00;;;16.48;;
54679;SDS011;40578;53.178;5.846;2022-07-24T06:54:10;20.33;;;17.20;;
54679;SDS011;40578;53.178;5.846;2022-07-24T06:56:35;20.73;;;16.87;;
54679;SDS011;40578;53.178;5.846;2022-07-24T06:59:01;23.33;;;16.33;;
54679;SDS011;40578;53.178;5.846;2022-07-24T07:01:27;21.67;;;17.03;;
54679;SDS011;40578;53.178;5.846;2022-07-24T07:03:52;20.13;;;15.53;;
54679;SDS011;40578;53.178;5.846;2022-07-24T07:06:19;21.38;;;16.35;;
54679;SDS011;40578;53.178;5.846;2022-07-24T07:08:45;20.33;;;17.88;;
54679;SDS011;40578;53.178;5.846;2022-07-24T07:11:10;21.07;;;17.70;;
54679;SDS011;40578;53.178;5.846;2022-07-24T07:13:36;18.77;;;16.27;;
54679;SDS011;40578;53.178;5.846;2022-07-24T07:16:01;22.93;;;16.37;;
54679;SDS011;40578;53.178;5.846;2022-07-24T07:18:28;20.15;;;16.83;;
54679;SDS011;40578;53.178;5.846;2022-07-24T07:20:54;19.98;;;17.08;;
54679;SDS011;40578;53.178;5.846;2022-07-24T07:23:21;23.13;;;17.25;;
54679;SDS011;40578;53.178;5.846;2022-07-24T07:25:48;20.10;;;17.35;;
54679;SDS011;40578;53.178;5.846;2022-07-24T07:28:14;23.13;;;18.10;;
54679;SDS011;40578;53.178;5.846;2022-07-24T07:30:39;20.10;;;17.17;;
54679;SDS011;40578;53.178;5.846;2022-07-24T07:33:05;21.70;;;17.20;;
54679;SDS011;40578;53.178;5.846;2022-07-24T07:35:31;18.43;;;16.20;;
54679;SDS011;40578;53.178;5.846;2022-07-24T07:37:56;22.57;;;16.97;;
54679;SDS011;40578;53.178;5.846;2022-07-24T07:40:22;18.67;;;14.73;;
54679;SDS011;40578;53.178;5.846;2022-07-24T07:42:49;18.98;;;12.90;;
54679;SDS011;40578;53.178;5.846;2022-07-24T07:45:17;16.03;;;11.40;;
54679;SDS011;40578;53.178;5.846;2022-07-24T07:47:42;11.35;;;8.73;;
54679;SDS011;40578;53.178;5.846;2022-07-24T07:50:08;12.20;;;7.95;;
54679;SDS011;40578;53.178;5.846;2022-07-24T07:52:35;11.93;;;6.72;;
54679;SDS011;40578;53.178;5.846;2022-07-24T07:55:00;10.57;;;6.37;;
54679;SDS011;40578;53.178;5.846;2022-07-24T07:57:26;10.30;;;6.17;;
54679;SDS011;40578;53.178;5.846;2022-07-24T07:59:52;9.20;;;6.20;;
54679;SDS011;40578;53.178;5.846;2022-07-24T08:02:17;7.87;;;6.00;;
54679;SDS011;40578;53.178;5.846;2022-07-24T08:04:43;15.00;;;5.40;;
54679;SDS011;40578;53.178;5.846;2022-07-24T08:07:08;8.10;;;5.47;;
54679;SDS011;40578;53.178;5.846;2022-07-24T08:09:34;8.10;;;5.80;;
54679;SDS011;40578;53.178;5.846;2022-07-24T08:12:00;6.17;;;4.93;;
54679;SDS011;40578;53.178;5.846;2022-07-24T08:14:25;7.27;;;4.83;;
54679;SDS011;40578;53.178;5.846;2022-07-24T08:16:51;11.57;;;5.00;;
54679;SDS011;40578;53.178;5.846;2022-07-24T08:19:17;8.33;;;5.13;;
54679;SDS011;40578;53.178;5.846;2022-07-24T08:21:42;6.53;;;5.07;;
54679;SDS011;40578;53.178;5.846;2022-07-24T08:24:08;7.90;;;4.87;;
54679;SDS011;40578;53.178;5.846;2022-07-24T08:26:33;7.00;;;4.60;;
54679;SDS011;40578;53.178;5.846;2022-07-24T08:28:59;5.43;;;4.60;;
54679;SDS011;40578;53.178;5.846;2022-07-24T08:31:27;11.00;;;5.13;;
54679;SDS011;40578;53.178;5.846;2022-07-24T08:33:53;6.57;;;5.00;;
54679;SDS011;40578;53.178;5.846;2022-07-24T08:36:19;5.72;;;3.95;;
54679;SDS011;40578;53.178;5.846;2022-07-24T08:38:44;6.13;;;4.47;;
54679;SDS011;40578;53.178;5.846;2022-07-24T08:41:11;6.63;;;4.60;;
54679;SDS011;40578;53.178;5.846;2022-07-24T08:43:39;6.15;;;3.60;;
54679;SDS011;40578;53.178;5.846;2022-07-24T08:46:06;6.57;;;3.30;;
54679;SDS011;40578;53.178;5.846;2022-07-24T08:48:35;4.80;;;3.50;;
54679;SDS011;40578;53.178;5.846;2022-07-24T08:51:02;5.68;;;3.40;;
54679;SDS011;40578;53.178;5.846;2022-07-24T08:53:27;10.93;;;3.67;;
54679;SDS011;40578;53.178;5.846;2022-07-24T08:55:53;8.50;;;3.33;;
54679;SDS011;40578;53.178;5.846;2022-07-24T08:58:18;8.43;;;3.33;;
54679;SDS011;40578;53.178;5.846;2022-07-24T09:00:44;6.20;;;3.80;;
54679;SDS011;40578;53.178;5.846;2022-07-24T09:03:10;10.87;;;3.90;;
54679;SDS011;40578;53.178;5.846;2022-07-24T09:05:56;6.05;;;3.40;;
54679;SDS011;40578;53.178;5.846;2022-07-24T09:08:23;6.78;;;3.55;;
54679;SDS011;40578;53.178;5.846;2022-07-24T09:10:59;5.13;;;3.28;;
54679;SDS011;40578;53.178;5.846;2022-07-24T09:13:29;5.78;;;3.35;;
54679;SDS011;40578;53.178;5.846;2022-07-24T09:16:19;7.55;;;3.30;;
54679;SDS011;40578;53.178;5.846;2022-07-24T09:18:50;6.18;;;3.63;;
54679;SDS011;40578;53.178;5.846;2022-07-24T09:21:26;5.03;;;3.22;;
54679;SDS011;40578;53.178;5.846;2022-07-24T09:23:52;6.80;;;3.50;;
54679;SDS011;40578;53.178;5.846;2022-07-24T09:26:17;6.90;;;2.90;;
54679;SDS011;40578;53.178;5.846;2022-07-24T09:28:47;7.27;;;3.60;;
54679;SDS011;40578;53.178;5.846;2022-07-24T09:31:18;9.48;;;4.10;;
54679;SDS011;40578;53.178;5.846;2022-07-24T09:33:47;5.45;;;3.50;;
54679;SDS011;40578;53.178;5.846;2022-07-24T09:36:14;5.97;;;3.57;;
54679;SDS011;40578;53.178;5.846;2022-07-24T09:38:47;9.32;;;3.40;;
54679;SDS011;40578;53.178;5.846;2022-07-24T09:41:24;6.10;;;3.47;;
54679;SDS011;40578;53.178;5.846;2022-07-24T09:43:56;5.47;;;3.50;;
54679;SDS011;40578;53.178;5.846;2022-07-24T09:46:24;5.55;;;3.60;;
54679;SDS011;40578;53.178;5.846;2022-07-24T09:48:59;6.35;;;3.20;;
54679;SDS011;40578;53.178;5.846;2022-07-24T09:51:25;6.57;;;3.10;;
54679;SDS011;40578;53.178;5.846;2022-07-24T09:53:56;4.93;;;3.42;;
54679;SDS011;40578;53.178;5.846;2022-07-24T09:56:23;6.82;;;2.90;;
54679;SDS011;40578;53.178;5.846;2022-07-24T09:58:53;7.57;;;3.47;;
54679;SDS011;40578;53.178;5.846;2022-07-24T10:01:24;4.80;;;2.80;;
54679;SDS011;40578;53.178;5.846;2022-07-24T10:03:52;4.35;;;2.70;;
54679;SDS011;40578;53.178;5.846;2022-07-24T10:06:19;6.32;;;3.13;;
54679;SDS011;40578;53.178;5.846;2022-07-24T10:08:50;4.72;;;2.90;;
54679;SDS011;40578;53.178;5.846;2022-07-24T10:11:17;5.90;;;3.28;;
54679;SDS011;40578;53.178;5.846;2022-07-24T10:13:43;6.03;;;3.10;;
54679;SDS011;40578;53.178;5.846;2022-07-24T10:21:14;4.18;;;2.72;;
54679;SDS011;40578;53.178;5.846;2022-07-24T10:26:43;6.18;;;2.90;;
54679;SDS011;40578;53.178;5.846;2022-07-24T10:29:11;4.85;;;3.05;;
54679;SDS011;40578;53.178;5.846;2022-07-24T10:45:52;7.10;;;2.70;;
54679;SDS011;40578;53.178;5.846;2022-07-24T10:48:32;6.00;;;2.95;;
54679;SDS011;40578;53.178;5.846;2022-07-24T10:51:08;5.93;;;3.50;;
54679;SDS011;40578;53.178;5.846;2022-07-24T10:56:19;4.10;;;2.60;;
54679;SDS011;40578;53.178;5.846;2022-07-24T11:06:55;4.63;;;2.70;;
54679;SDS011;40578;53.178;5.846;2022-07-24T11:09:52;7.05;;;2.58;;
54679;SDS011;40578;53.178;5.846;2022-07-24T11:12:29;6.53;;;2.58;;
54679;SDS011;40578;53.178;5.846;2022-07-24T11:15:03;5.65;;;3.13;;
54679;SDS011;40578;53.178;5.846;2022-07-24T11:17:52;6.65;;;3.10;;
54679;SDS011;40578;53.178;5.846;2022-07-24T11:20:19;4.57;;;2.70;;
54679;SDS011;40578;53.178;5.846;2022-07-24T11:22:46;5.28;;;3.30;;
54679;SDS011;40578;53.178;5.846;2022-07-24T11:25:23;5.20;;;2.85;;
54679;SDS011;40578;53.178;5.846;2022-07-24T11:30:23;6.45;;;3.03;;
54679;SDS011;40578;53.178;5.846;2022-07-24T11:32:53;6.50;;;3.00;;
54679;SDS011;40578;53.178;5.846;2022-07-24T11:35:26;4.22;;;3.20;;
54679;SDS011;40578;53.178;5.846;2022-07-24T11:38:00;4.82;;;3.10;;
54679;SDS011;40578;53.178;5.846;2022-07-24T11:40:27;5.60;;;2.95;;
54679;SDS011;40578;53.178;5.846;2022-07-24T11:42:56;4.35;;;3.00;;
54679;SDS011;40578;53.178;5.846;2022-07-24T11:45:23;4.63;;;2.90;;
54679;SDS011;40578;53.178;5.846;2022-07-24T11:47:49;7.43;;;3.10;;
54679;SDS011;40578;53.178;5.846;2022-07-24T11:50:15;4.13;;;2.70;;
54679;SDS011;40578;53.178;5.846;2022-07-24T11:52:44;5.55;;;3.30;;
54679;SDS011;40578;53.178;5.846;2022-07-24T11:55:13;3.87;;;2.57;;
54679;SDS011;40578;53.178;5.846;2022-07-24T11:57:41;4.30;;;2.53;;
54679;SDS011;40578;53.178;5.846;2022-07-24T12:00:12;4.88;;;2.67;;
54679;SDS011;40578;53.178;5.846;2022-07-24T12:02:43;6.68;;;3.00;;
54679;SDS011;40578;53.178;5.846;2022-07-24T12:05:13;4.13;;;2.97;;
54679;SDS011;40578;53.178;5.846;2022-07-24T12:07:52;7.40;;;3.08;;
54679;SDS011;40578;53.178;5.846;2022-07-24T12:12:46;5.30;;;2.60;;
54679;SDS011;40578;53.178;5.846;2022-07-24T12:15:13;5.28;;;2.75;;
54679;SDS011;40578;53.178;5.846;2022-07-24T12:20:42;5.90;;;3.28;;
54679;SDS011;40578;53.178;5.846;2022-07-24T12:23:12;4.05;;;2.90;;
54679;SDS011;40578;53.178;5.846;2022-07-24T12:25:40;5.57;;;2.40;;
54679;SDS011;40578;53.178;5.846;2022-07-24T12:28:12;6.90;;;2.72;;
54679;SDS011;40578;53.178;5.846;2022-07-24T12:30:41;3.60;;;2.47;;
54679;SDS011;40578;53.178;5.846;2022-07-24T12:33:08;3.65;;;2.55;;
54679;SDS011;40578;53.178;5.846;2022-07-24T12:35:59;7.40;;;2.47;;
54679;SDS011;40578;53.178;5.846;2022-07-24T12:41:07;4.17;;;2.60;;
54679;SDS011;40578;53.178;5.846;2022-07-24T12:43:54;4.07;;;2.55;;
54679;SDS011;40578;53.178;5.846;2022-07-24T12:46:32;5.95;;;2.47;;
54679;SDS011;40578;53.178;5.846;2022-07-24T12:51:45;4.30;;;2.67;;
54679;SDS011;40578;53.178;5.846;2022-07-24T12:54:21;3.90;;;2.33;;
54679;SDS011;40578;53.178;5.846;2022-07-24T12:56:53;4.25;;;2.42;;
54679;SDS011;40578;53.178;5.846;2022-07-24T12:59:27;3.33;;;2.40;;
54679;SDS011;40578;53.178;5.846;2022-07-24T13:04:30;2.80;;;2.10;;
54679;SDS011;40578;53.178;5.846;2022-07-24T13:06:57;4.05;;;2.30;;
54679;SDS011;40578;53.178;5.846;2022-07-24T13:09:24;6.97;;;2.58;;
54679;SDS011;40578;53.178;5.846;2022-07-24T13:14:18;5.67;;;2.40;;
54679;SDS011;40578;53.178;5.846;2022-07-24T13:16:46;4.90;;;2.35;;
54679;SDS011;40578;53.178;5.846;2022-07-24T13:19:13;3.90;;;2.20;;
54679;SDS011;40578;53.178;5.846;2022-07-24T13:21:39;3.72;;;2.20;;
54679;SDS011;40578;53.178;5.846;2022-07-24T13:24:05;5.07;;;2.42;;
54679;SDS011;40578;53.178;5.846;2022-07-24T13:26:32;5.78;;;2.47;;
54679;SDS011;40578;53.178;5.846;2022-07-24T13:28:58;3.35;;;2.10;;
54679;SDS011;40578;53.178;5.846;2022-07-24T13:31:24;3.90;;;2.03;;
54679;SDS011;40578;53.178;5.846;2022-07-24T13:33:50;3.58;;;2.30;;
54679;SDS011;40578;53.178;5.846;2022-07-24T13:36:16;5.00;;;2.95;;
54679;SDS011;40578;53.178;5.846;2022-07-24T13:41:08;4.13;;;2.05;;
54679;SDS011;40578;53.178;5.846;2022-07-24T13:43:34;5.07;;;2.50;;
54679;SDS011;40578;53.178;5.846;2022-07-24T13:46:00;6.88;;;2.80;;
54679;SDS011;40578;53.178;5.846;2022-07-24T13:48:25;2.65;;;1.90;;
54679;SDS011;40578;53.178;5.846;2022-07-24T13:50:51;4.10;;;2.20;;
54679;SDS011;40578;53.178;5.846;2022-07-24T13:53:17;3.42;;;2.10;;
54679;SDS011;40578;53.178;5.846;2022-07-24T13:55:42;4.55;;;2.30;;
54679;SDS011;40578;53.178;5.846;2022-07-24T13:58:08;3.93;;;2.23;;
54679;SDS011;40578;53.178;5.846;2022-07-24T14:00:34;2.30;;;1.90;;
54679;SDS011;40578;53.178;5.846;2022-07-24T14:03:00;4.18;;;2.33;;
54679;SDS011;40578;53.178;5.846;2022-07-24T14:05:25;4.40;;;2.10;;
54679;SDS011;40578;53.178;5.846;2022-07-24T14:07:51;6.13;;;2.30;;
54679;SDS011;40578;53.178;5.846;2022-07-24T14:10:18;4.85;;;2.45;;
54679;SDS011;40578;53.178;5.846;2022-07-24T14:12:45;4.72;;;2.05;;
54679;SDS011;40578;53.178;5.846;2022-07-24T14:15:10;6.50;;;2.15;;
54679;SDS011;40578;53.178;5.846;2022-07-24T14:17:40;4.53;;;2.40;;
54679;SDS011;40578;53.178;5.846;2022-07-24T14:20:07;4.72;;;2.20;;
54679;SDS011;40578;53.178;5.846;2022-07-24T14:22:34;5.97;;;2.00;;
54679;SDS011;40578;53.178;5.846;2022-07-24T14:25:00;3.58;;;2.13;;
54679;SDS011;40578;53.178;5.846;2022-07-24T14:27:27;4.45;;;2.40;;
54679;SDS011;40578;53.178;5.846;2022-07-24T14:29:53;6.22;;;2.00;;
54679;SDS011;40578;53.178;5.846;2022-07-24T14:32:19;3.97;;;2.38;;
54679;SDS011;40578;53.178;5.846;2022-07-24T14:34:45;6.32;;;2.20;;
54679;SDS011;40578;53.178;5.846;2022-07-24T14:37:10;3.00;;;2.28;;
54679;SDS011;40578;53.178;5.846;2022-07-24T14:39:36;4.75;;;2.45;;
54679;SDS011;40578;53.178;5.846;2022-07-24T14:42:05;4.70;;;2.65;;
54679;SDS011;40578;53.178;5.846;2022-07-24T14:44:30;5.93;;;2.95;;
54679;SDS011;40578;53.178;5.846;2022-07-24T14:46:56;8.15;;;2.92;;
54679;SDS011;40578;53.178;5.846;2022-07-24T14:49:23;6.72;;;2.88;;
54679;SDS011;40578;53.178;5.846;2022-07-24T14:51:49;3.08;;;2.50;;
54679;SDS011;40578;53.178;5.846;2022-07-24T14:54:15;4.00;;;2.67;;
54679;SDS011;40578;53.178;5.846;2022-07-24T14:56:41;3.63;;;2.10;;
54679;SDS011;40578;53.178;5.846;2022-07-24T14:59:06;4.22;;;2.67;;
54679;SDS011;40578;53.178;5.846;2022-07-24T15:01:33;5.25;;;2.75;;
54679;SDS011;40578;53.178;5.846;2022-07-24T15:03:59;4.60;;;2.58;;
54679;SDS011;40578;53.178;5.846;2022-07-24T15:06:26;4.47;;;2.50;;
54679;SDS011;40578;53.178;5.846;2022-07-24T15:08:52;4.80;;;2.58;;
54679;SDS011;40578;53.178;5.846;2022-07-24T15:11:18;4.95;;;2.65;;
54679;SDS011;40578;53.178;5.846;2022-07-24T15:13:46;4.30;;;2.55;;
54679;SDS011;40578;53.178;5.846;2022-07-24T15:16:13;4.70;;;2.65;;
54679;SDS011;40578;53.178;5.846;2022-07-24T15:18:39;4.75;;;2.50;;
54679;SDS011;40578;53.178;5.846;2022-07-24T15:21:04;4.43;;;2.70;;
54679;SDS011;40578;53.178;5.846;2022-07-24T15:23:30;4.25;;;2.60;;
54679;SDS011;40578;53.178;5.846;2022-07-24T15:25:56;3.80;;;2.63;;
54679;SDS011;40578;53.178;5.846;2022-07-24T15:28:24;4.50;;;2.53;;
54679;SDS011;40578;53.178;5.846;2022-07-24T15:30:51;4.72;;;2.95;;
54679;SDS011;40578;53.178;5.846;2022-07-24T15:33:17;5.20;;;2.63;;